Time;durP1;ratioP1;P1;durP2;ratioP2;P2;SDS_P1;SDS_P2;PMS_P1;PMS_P2;Temp;Humidity;BMP_temperature;BMP_pressure;BME280_temperature;BME280_humidity;BME280_pressure;Samples;Min_cycle;Max_cycle;Signal;HPM_P1;HPM_P2
2023/09/12 00:01:38;;;;;;;5.70;2.92;;;;;;;23.21;46.69;99345.69;4478632;31;33916;-73
2023/09/12 00:04:06;;;;;;;6.87;3.42;;;;;;;22.84;47.77;99353.31;4486707;31;34472;-73
2023/09/12 00:06:33;;;;;;;6.20;2.53;;;;;;;22.90;47.70;99351.66;4471058;31;33846;-72
2023/09/12 00:09:01;;;;;;;8.05;4.15;;;;;;;23.08;47.19;99351.13;4479970;31;33322;-73
2023/09/12 00:11:29;;;;;;;6.97;3.08;;;;;;;22.81;47.86;99344.69;4475874;31;33547;-73
2023/09/12 00:13:59;;;;;;;9.20;4.90;;;;;;;22.84;47.63;99352.47;4473851;31;34180;-72
2023/09/12 00:16:26;;;;;;;19.42;3.22;;;;;;;22.81;47.66;99350.16;4478819;31;34136;-72
2023/09/12 00:18:54;;;;;;;7.93;4.20;;;;;;;22.77;47.73;99356.03;4481886;31;33206;-72
2023/09/12 00:21:22;;;;;;;6.45;3.83;;;;;;;22.89;47.58;99350.84;4495805;31;33705;-72
2023/09/12 00:23:50;;;;;;;7.65;3.95;;;;;;;22.97;47.68;99345.22;4477733;31;35033;-73
2023/09/12 00:26:17;;;;;;;5.80;3.47;;;;;;;23.06;47.36;99345.87;4478485;31;33421;-72
2023/09/12 00:28:45;;;;;;;9.02;3.78;;;;;;;23.12;47.04;99342.31;4481216;31;33058;-71
2023/09/12 00:31:13;;;;;;;9.15;4.47;;;;;;;23.16;47.41;99342.75;4468442;31;34721;-72
2023/09/12 00:33:41;;;;;;;8.00;4.53;;;;;;;23.22;47.30;99348.22;4498330;31;34305;-73
2023/09/12 00:36:09;;;;;;;11.30;3.28;;;;;;;23.26;46.75;99340.47;4483743;31;34863;-73
2023/09/12 00:38:36;;;;;;;11.10;3.22;;;;;;;23.20;46.64;99346.75;4479451;31;33436;-74
2023/09/12 00:41:04;;;;;;;7.20;3.45;;;;;;;23.16;46.69;99350.94;4482617;31;34951;-73
2023/09/12 00:43:32;;;;;;;9.38;4.37;;;;;;;23.08;46.97;99353.84;4469630;32;34051;-73
2023/09/12 00:46:01;;;;;;;7.15;3.55;;;;;;;23.10;46.96;99355.31;4478140;32;33689;-73
2023/09/12 00:48:29;;;;;;;7.53;3.45;;;;;;;23.02;47.11;99355.53;4479430;31;32974;-71
2023/09/12 00:50:57;;;;;;;8.57;4.28;;;;;;;23.01;47.13;99354.66;4494652;31;34047;-72
2023/09/12 00:53:25;;;;;;;8.40;3.95;;;;;;;22.91;47.35;99350.63;4488648;31;34112;-72
2023/09/12 00:55:56;;;;;;;10.30;3.53;;;;;;;22.98;47.01;99352.34;4486543;31;34582;-72
2023/09/12 00:58:25;;;;;;;9.77;3.33;;;;;;;22.96;47.03;99351.72;4469471;31;34536;-74
2023/09/12 01:00:53;;;;;;;5.30;3.08;;;;;;;22.98;46.97;99346.03;4480080;32;35172;-73
2023/09/12 01:03:20;;;;;;;9.35;4.93;;;;;;;22.92;47.28;99352.28;4474467;31;33673;-72
2023/09/12 01:05:48;;;;;;;7.65;3.95;;;;;;;22.90;47.45;99344.31;4474857;31;34931;-73
2023/09/12 01:08:16;;;;;;;7.05;3.65;;;;;;;22.93;47.40;99343.94;4469765;32;33053;-73
2023/09/12 01:10:46;;;;;;;6.35;3.08;;;;;;;22.95;47.31;99347.31;4481699;31;33451;-74
2023/09/12 01:13:14;;;;;;;11.10;4.40;;;;;;;22.95;47.37;99346.44;4468247;32;34860;-73
2023/09/12 01:15:42;;;;;;;19.35;5.35;;;;;;;22.98;47.23;99348.78;4483893;31;34602;-74
2023/09/12 01:18:10;;;;;;;5.18;2.87;;;;;;;22.92;47.40;99344.09;4492984;31;33216;-74
2023/09/12 01:20:39;;;;;;;6.65;3.12;;;;;;;22.99;47.24;99345.03;4468415;31;33502;-73
2023/09/12 01:23:30;;;;;;;5.28;2.53;;;;;;;23.01;47.16;99346.47;4460204;31;33337;-75
2023/09/12 01:26:15;;;;;;;5.68;2.45;;;;;;;23.04;47.16;99344.38;4463571;31;35172;-75
2023/09/12 01:28:44;;;;;;;5.40;2.90;;;;;;;22.94;47.27;99348.34;4473587;31;33070;-75
2023/09/12 01:31:12;;;;;;;4.70;2.72;;;;;;;22.82;47.52;99338.19;4482348;31;36044;-73
2023/09/12 01:33:40;;;;;;;7.18;3.92;;;;;;;22.76;47.61;99343.44;4475318;31;34813;-75
2023/09/12 01:36:10;;;;;;;6.12;3.40;;;;;;;22.79;47.55;99347.63;4481532;31;33534;-73
2023/09/12 01:38:38;;;;;;;6.25;3.00;;;;;;;22.69;47.84;99341.69;4489486;31;33267;-73
2023/09/12 01:41:07;;;;;;;6.65;3.72;;;;;;;22.71;47.93;99339.63;4481751;31;33947;-73
2023/09/12 01:43:36;;;;;;;11.75;3.70;;;;;;;22.64;47.94;99339.59;4463088;32;34517;-73
2023/09/12 01:46:04;;;;;;;7.15;3.42;;;;;;;22.62;47.78;99338.09;4463469;32;34024;-74
2023/09/12 01:48:33;;;;;;;5.32;3.03;;;;;;;22.58;47.88;99345.84;4479880;31;33193;-73
2023/09/12 01:51:02;;;;;;;6.32;3.03;;;;;;;22.59;47.95;99342.06;4471302;31;33654;-73
2023/09/12 01:53:31;;;;;;;7.82;3.35;;;;;;;22.49;48.31;99347.91;4481226;32;34070;-73
2023/09/12 01:55:59;;;;;;;10.50;2.65;;;;;;;22.43;48.38;99347.88;4471827;31;33235;-73
2023/09/12 01:58:28;;;;;;;7.45;4.10;;;;;;;22.41;48.42;99350.81;4478230;31;34252;-73
2023/09/12 02:00:56;;;;;;;6.35;3.28;;;;;;;22.45;48.34;99352.06;4489833;31;34773;-75
2023/09/12 02:03:24;;;;;;;6.72;3.97;;;;;;;22.46;48.34;99342.00;4466851;32;34110;-74
2023/09/12 02:05:52;;;;;;;7.37;3.87;;;;;;;22.45;48.53;99345.78;4472981;32;34672;-73
2023/09/12 02:08:19;;;;;;;8.15;4.57;;;;;;;22.49;48.22;99350.63;4474210;32;34510;-75
2023/09/12 02:10:47;;;;;;;13.65;5.43;;;;;;;22.52;48.21;99349.38;4475246;32;33666;-75
2023/09/12 02:13:15;;;;;;;7.37;3.83;;;;;;;22.51;48.28;99353.16;4472777;32;33994;-75
2023/09/12 02:15:42;;;;;;;11.50;4.18;;;;;;;22.41;48.42;99356.25;4465719;32;33817;-75
2023/09/12 02:18:11;;;;;;;6.40;3.40;;;;;;;22.48;48.34;99356.28;4475727;32;33289;-75
2023/09/12 02:20:41;;;;;;;7.82;3.33;;;;;;;22.50;48.57;99357.78;4462058;32;34610;-75
2023/09/12 02:23:08;;;;;;;9.23;3.67;;;;;;;22.53;48.43;99354.63;4471158;32;33918;-75
2023/09/12 02:25:37;;;;;;;7.20;3.15;;;;;;;22.56;48.16;99354.22;4470987;32;33682;-74
2023/09/12 02:28:05;;;;;;;6.10;3.03;;;;;;;22.51;48.06;99353.16;4475399;32;35110;-75
2023/09/12 02:30:32;;;;;;;7.03;4.05;;;;;;;22.47;48.32;99351.84;4461063;32;34343;-74
2023/09/12 02:33:00;;;;;;;12.57;2.85;;;;;;;22.36;48.57;99358.72;4476047;32;34026;-73
2023/09/12 02:35:28;;;;;;;7.35;3.60;;;;;;;22.39;48.39;99352.87;4463139;32;36681;-71
2023/09/12 02:37:56;;;;;;;5.43;3.12;;;;;;;22.44;48.46;99350.41;4469318;32;34284;-71
2023/09/12 02:40:24;;;;;;;4.62;3.08;;;;;;;22.36;48.61;99353.28;4467699;32;34916;-71
2023/09/12 02:42:52;;;;;;;12.55;3.15;;;;;;;22.27;48.76;99358.03;4465905;32;34354;-69
2023/09/12 02:45:20;;;;;;;8.75;4.35;;;;;;;22.34;48.63;99347.16;4471579;32;35008;-70
2023/09/12 02:47:47;;;;;;;5.45;3.20;;;;;;;22.35;48.77;99351.59;4468030;32;33998;-69
2023/09/12 02:50:15;;;;;;;6.18;3.10;;;;;;;22.38;48.47;99356.66;4467437;32;34873;-69
2023/09/12 02:52:43;;;;;;;6.93;3.87;;;;;;;22.36;48.46;99350.56;4470954;32;34925;-69
2023/09/12 02:55:11;;;;;;;12.07;5.60;;;;;;;22.30;48.68;99354.06;4481506;32;34624;-70
2023/09/12 02:57:38;;;;;;;10.35;3.67;;;;;;;22.28;48.65;99345.28;4469408;32;33457;-70
2023/09/12 03:00:08;;;;;;;11.45;3.28;;;;;;;22.17;48.91;99354.00;4460857;32;34145;-70
2023/09/12 03:02:36;;;;;;;8.70;3.83;;;;;;;22.20;48.78;99342.69;4469873;31;34191;-69
2023/09/12 03:05:04;;;;;;;7.47;3.15;;;;;;;22.22;48.78;99344.19;4482780;31;34024;-70
2023/09/12 03:07:32;;;;;;;6.25;3.50;;;;;;;22.23;48.81;99350.47;4482197;31;33495;-69
2023/09/12 03:10:00;;;;;;;7.37;3.50;;;;;;;22.21;48.90;99350.66;4477003;31;34933;-69
2023/09/12 03:12:28;;;;;;;7.00;3.83;;;;;;;22.23;48.79;99354.03;4478661;31;34909;-70
2023/09/12 03:14:56;;;;;;;5.87;2.87;;;;;;;22.19;48.89;99349.19;4484223;32;34745;-70
2023/09/12 03:17:24;;;;;;;9.93;4.45;;;;;;;22.02;49.35;99354.06;4479468;31;32712;-70
2023/09/12 03:19:52;;;;;;;6.53;3.37;;;;;;;21.99;49.47;99354.44;4484539;31;33434;-70
2023/09/12 03:22:19;;;;;;;6.47;3.85;;;;;;;21.96;49.58;99349.38;4482435;31;34175;-70
2023/09/12 03:24:47;;;;;;;5.43;2.92;;;;;;;21.75;49.98;99355.72;4479793;31;33899;-71
2023/09/12 03:27:15;;;;;;;11.15;3.97;;;;;;;21.71;50.05;99349.00;4483872;31;33591;-71
2023/09/12 03:29:46;;;;;;;11.65;3.40;;;;;;;21.59;50.33;99357.69;4484003;32;34629;-71
2023/09/12 03:32:14;;;;;;;8.38;3.78;;;;;;;21.64;50.13;99359.84;4483385;31;34055;-70
2023/09/12 03:34:42;;;;;;;11.63;3.83;;;;;;;21.29;51.01;99364.28;4476991;31;34949;-70
2023/09/12 03:37:10;;;;;;;6.70;3.60;;;;;;;21.30;50.83;99364.06;4482775;31;34173;-70
2023/09/12 03:39:37;;;;;;;7.10;3.55;;;;;;;21.39;50.76;99362.09;4484639;32;33406;-70
2023/09/12 03:42:05;;;;;;;6.72;3.30;;;;;;;21.33;50.97;99368.28;4483892;31;33796;-70
2023/09/12 03:44:33;;;;;;;8.05;3.15;;;;;;;21.54;50.60;99371.06;4473302;31;35010;-70
2023/09/12 03:47:01;;;;;;;5.07;3.53;;;;;;;21.50;50.72;99371.62;4474224;31;33213;-70
2023/09/12 03:49:29;;;;;;;8.02;3.42;;;;;;;21.53;50.57;99363.06;4483572;31;33453;-70
2023/09/12 03:51:56;;;;;;;8.70;4.05;;;;;;;21.58;50.55;99364.19;4483399;31;34800;-70
2023/09/12 03:54:26;;;;;;;8.25;4.07;;;;;;;21.56;50.56;99371.69;4477183;31;34801;-70
2023/09/12 03:56:53;;;;;;;8.15;5.45;;;;;;;21.53;50.58;99366.63;4483015;31;33554;-69
2023/09/12 03:59:21;;;;;;;6.85;3.35;;;;;;;21.58;50.58;99366.91;4469179;32;33785;-72
2023/09/12 04:01:49;;;;;;;11.80;5.90;;;;;;;21.66;50.49;99363.19;4480283;31;34097;-73
2023/09/12 04:04:17;;;;;;;4.22;2.58;;;;;;;21.63;50.52;99364.41;4480557;32;33687;-73
2023/09/12 04:06:45;;;;;;;9.48;3.65;;;;;;;21.72;50.19;99356.13;4482778;32;33406;-72
2023/09/12 04:09:12;;;;;;;9.60;4.28;;;;;;;21.72;50.18;99350.69;4471737;32;33658;-73
2023/09/12 04:11:40;;;;;;;14.13;4.87;;;;;;;21.57;50.59;99358.91;4474995;32;34128;-73
2023/09/12 04:14:14;;;;;;;10.18;4.47;;;;;;;21.61;50.65;99361.06;4482255;32;33087;-73
2023/09/12 04:16:42;;;;;;;6.10;2.95;;;;;;;21.63;50.57;99364.41;4483675;32;34257;-73
2023/09/12 04:19:10;;;;;;;12.52;3.47;;;;;;;21.58;50.61;99364.19;4482639;32;35236;-73
2023/09/12 04:21:38;;;;;;;7.32;3.72;;;;;;;21.61;50.38;99363.78;4477602;32;34115;-73
2023/09/12 04:24:07;;;;;;;7.40;3.22;;;;;;;21.56;50.31;99366.25;4476301;32;33497;-74
2023/09/12 04:26:35;;;;;;;14.90;4.53;;;;;;;21.45;50.66;99358.59;4481175;32;33507;-72
2023/09/12 04:29:03;;;;;;;5.60;3.70;;;;;;;21.50;50.51;99367.00;4478450;32;33858;-74
2023/09/12 04:31:30;;;;;;;5.30;3.45;;;;;;;21.40;50.79;99361.91;4477980;32;34271;-73
2023/09/12 04:33:58;;;;;;;8.57;5.00;;;;;;;21.37;50.91;99364.16;4468275;32;33804;-73
2023/09/12 04:36:26;;;;;;;7.60;4.15;;;;;;;21.39;50.88;99370.28;4483387;32;33139;-72
2023/09/12 04:38:54;;;;;;;18.65;3.17;;;;;;;21.36;50.91;99367.94;4477411;32;33658;-71
2023/09/12 04:41:21;;;;;;;7.43;3.28;;;;;;;21.44;50.73;99372.41;4465391;32;34205;-71
2023/09/12 04:43:49;;;;;;;7.22;3.72;;;;;;;21.48;50.67;99373.72;4468567;32;34174;-71
2023/09/12 04:46:16;;;;;;;5.00;3.72;;;;;;;21.50;50.65;99375.19;4482791;32;34251;-71
2023/09/12 04:48:44;;;;;;;9.93;5.53;;;;;;;21.50;50.69;99375.19;4481602;32;34374;-71
2023/09/12 04:51:12;;;;;;;14.70;4.25;;;;;;;21.18;51.47;99371.88;4481107;32;34626;-71
2023/09/12 04:53:40;;;;;;;15.32;5.90;;;;;;;21.33;51.21;99377.28;4468719;32;33683;-71
2023/09/12 04:56:09;;;;;;;6.85;4.90;;;;;;;21.25;51.51;99380.16;4472972;32;33270;-71
2023/09/12 04:58:37;;;;;;;9.77;4.95;;;;;;;21.38;51.25;99384.94;4480899;32;33667;-71
2023/09/12 05:01:05;;;;;;;9.10;3.03;;;;;;;21.43;51.20;99387.06;4472313;31;34114;-71
2023/09/12 05:03:33;;;;;;;5.47;3.78;;;;;;;21.49;51.21;99398.00;4472148;32;34978;-74
2023/09/12 05:06:01;;;;;;;7.50;3.08;;;;;;;21.61;51.04;99391.03;4466983;32;33294;-73
2023/09/12 05:08:29;;;;;;;6.82;3.17;;;;;;;21.58;51.13;99385.97;4467660;31;33821;-74
2023/09/12 05:10:57;;;;;;;7.18;4.28;;;;;;;21.73;50.86;99393.22;4478252;32;34373;-73
2023/09/12 05:13:25;;;;;;;7.50;3.17;;;;;;;21.87;50.61;99393.16;4483069;32;34763;-74
2023/09/12 05:15:53;;;;;;;6.47;4.12;;;;;;;21.97;50.41;99392.81;4469939;32;32984;-71
2023/09/12 05:18:20;;;;;;;10.35;3.67;;;;;;;22.02;50.02;99384.91;4474787;32;33233;-74
2023/09/12 05:20:49;;;;;;;7.35;3.45;;;;;;;22.15;49.69;99388.75;4465123;32;34883;-74
2023/09/12 05:23:17;;;;;;;6.40;3.12;;;;;;;22.24;49.44;99391.16;4464159;32;34680;-74
2023/09/12 05:25:45;;;;;;;7.25;3.80;;;;;;;22.31;49.15;99392.06;4467220;32;33213;-74
2023/09/12 05:28:15;;;;;;;8.38;4.25;;;;;;;22.36;49.11;99396.91;4479138;32;33906;-73
2023/09/12 05:30:44;;;;;;;5.55;3.67;;;;;;;22.45;49.00;99394.88;4480839;32;33926;-74
2023/09/12 05:33:11;;;;;;;17.67;5.80;;;;;;;22.56;48.99;99397.84;4465170;32;33807;-74
2023/09/12 05:35:41;;;;;;;10.80;4.18;;;;;;;22.57;49.03;99398.72;4463590;32;34060;-73
2023/09/12 05:38:10;;;;;;;5.80;3.92;;;;;;;22.67;48.78;99395.62;4467203;32;33765;-75
2023/09/12 05:40:38;;;;;;;11.77;4.43;;;;;;;22.76;48.58;99402.59;4467161;32;34265;-73
2023/09/12 05:43:05;;;;;;;10.82;4.28;;;;;;;22.79;48.67;99410.38;4466690;32;33869;-74
2023/09/12 05:45:33;;;;;;;12.95;4.22;;;;;;;22.79;48.64;99408.50;4467218;32;33178;-74
2023/09/12 05:48:03;;;;;;;10.05;3.97;;;;;;;22.89;48.53;99419.03;4452546;32;35535;-73
2023/09/12 05:50:31;;;;;;;7.70;3.60;;;;;;;22.88;48.38;99414.63;4471524;32;34555;-74
2023/09/12 05:52:59;;;;;;;5.85;2.90;;;;;;;22.92;48.40;99413.19;4469823;32;32173;-73
2023/09/12 05:55:26;;;;;;;6.37;3.65;;;;;;;23.08;48.37;99416.63;4464601;32;33409;-73
2023/09/12 05:57:54;;;;;;;8.63;4.30;;;;;;;23.21;48.11;99416.66;4466598;32;34190;-74
2023/09/12 06:00:22;;;;;;;9.20;4.72;;;;;;;23.29;48.07;99419.22;4466531;32;33984;-72
2023/09/12 06:02:50;;;;;;;6.22;3.97;;;;;;;23.42;47.95;99416.53;4472731;31;33246;-72
2023/09/12 06:05:18;;;;;;;8.30;5.97;;;;;;;23.48;47.62;99415.72;4482278;31;34454;-74
2023/09/12 06:07:46;;;;;;;11.12;4.25;;;;;;;23.56;47.50;99414.66;4479304;31;34269;-74
2023/09/12 06:10:14;;;;;;;6.37;3.20;;;;;;;23.74;47.38;99418.75;4480986;31;34307;-75
2023/09/12 06:12:42;;;;;;;7.62;4.32;;;;;;;23.82;47.31;99418.53;4479502;32;33721;-75
2023/09/12 06:15:10;;;;;;;7.20;4.07;;;;;;;23.93;47.16;99417.94;4480256;31;33102;-74
2023/09/12 06:17:38;;;;;;;11.20;4.97;;;;;;;24.03;47.15;99423.81;4475915;31;33872;-74
2023/09/12 06:20:06;;;;;;;7.85;3.90;;;;;;;24.17;47.20;99427.38;4480423;31;33550;-73
2023/09/12 06:22:35;;;;;;;12.40;3.92;;;;;;;24.29;46.77;99427.59;4481118;31;33703;-74
2023/09/12 06:25:04;;;;;;;6.78;4.15;;;;;;;24.42;46.53;99432.25;4480899;31;34610;-73
2023/09/12 06:27:32;;;;;;;10.52;4.55;;;;;;;24.55;46.15;99430.31;4478392;31;34726;-75
2023/09/12 06:30:00;;;;;;;9.05;3.62;;;;;;;24.70;45.80;99432.00;4479568;31;32324;-74
2023/09/12 06:32:28;;;;;;;6.75;3.80;;;;;;;24.88;45.39;99423.97;4479036;31;33719;-73
2023/09/12 06:34:55;;;;;;;7.82;4.07;;;;;;;25.02;45.10;99431.06;4481599;31;34112;-73
2023/09/12 06:37:23;;;;;;;8.45;5.25;;;;;;;25.11;45.22;99423.44;4479620;31;33721;-74
2023/09/12 06:39:51;;;;;;;11.55;6.60;;;;;;;25.24;45.41;99430.81;4479065;31;33905;-74
2023/09/12 06:42:19;;;;;;;21.12;4.78;;;;;;;25.33;45.06;99427.59;4480383;31;33707;-73
2023/09/12 06:44:47;;;;;;;15.10;4.78;;;;;;;25.43;44.88;99426.28;4481789;31;34503;-72
2023/09/12 06:47:14;;;;;;;11.35;4.97;;;;;;;25.57;44.74;99422.41;4482638;31;34624;-74
2023/09/12 06:49:42;;;;;;;8.50;4.37;;;;;;;25.54;44.30;99428.31;4482448;31;33650;-74
2023/09/12 06:52:11;;;;;;;10.73;4.32;;;;;;;25.76;44.22;99424.16;4484291;31;33932;-73
2023/09/12 06:54:39;;;;;;;7.90;3.95;;;;;;;25.78;44.82;99424.81;4483912;31;33317;-74
2023/09/12 06:57:06;;;;;;;10.88;4.90;;;;;;;25.85;45.02;99422.03;4482928;31;33472;-74
2023/09/12 06:59:34;;;;;;;11.82;5.97;;;;;;;25.89;45.26;99425.19;4481764;31;33736;-74
2023/09/12 07:02:02;;;;;;;12.23;5.68;;;;;;;25.71;44.43;99423.16;4477457;31;33713;-74
2023/09/12 07:04:30;;;;;;;10.82;4.85;;;;;;;25.87;45.01;99421.81;4483321;31;31809;-74
2023/09/12 07:06:57;;;;;;;7.53;3.87;;;;;;;25.92;44.13;99430.22;4483970;31;34789;-74
2023/09/12 07:09:25;;;;;;;8.80;4.93;;;;;;;25.94;43.74;99433.56;4481410;31;33970;-73
2023/09/12 07:11:52;;;;;;;9.77;5.30;;;;;;;26.06;44.13;99437.25;4483475;31;34005;-73
2023/09/12 07:14:21;;;;;;;11.23;6.25;;;;;;;25.74;44.66;99436.41;4482498;31;33667;-73
2023/09/12 07:16:49;;;;;;;8.00;4.57;;;;;;;25.93;44.81;99440.94;4482927;31;33936;-74
2023/09/12 07:19:17;;;;;;;8.18;4.97;;;;;;;26.15;45.00;99440.59;4477898;31;34801;-74
2023/09/12 07:21:44;;;;;;;9.52;4.47;;;;;;;25.91;44.39;99437.59;4477397;31;34491;-73
2023/09/12 07:24:12;;;;;;;11.82;5.32;;;;;;;25.91;43.88;99434.03;4477325;31;33344;-73
2023/09/12 07:26:40;;;;;;;13.95;4.82;;;;;;;26.17;43.67;99438.47;4481773;31;33751;-72
2023/09/12 07:29:07;;;;;;;7.07;4.00;;;;;;;26.31;43.38;99444.66;4483586;31;34063;-72
2023/09/12 07:31:35;;;;;;;12.15;5.78;;;;;;;26.53;42.08;99434.16;4480980;31;33680;-71
2023/09/12 07:34:03;;;;;;;14.10;5.65;;;;;;;26.43;42.84;99438.22;4472835;31;33140;-71
2023/09/12 07:36:36;;;;;;;9.45;5.50;;;;;;;26.52;42.28;99435.22;4478162;31;34091;-72
2023/09/12 07:39:04;;;;;;;12.13;4.87;;;;;;;26.46;41.68;99437.78;4481197;31;33834;-71
2023/09/12 07:41:32;;;;;;;14.25;6.35;;;;;;;26.58;42.75;99432.44;4481143;31;34473;-73
2023/09/12 07:44:01;;;;;;;10.50;5.57;;;;;;;26.15;42.10;99435.94;4482752;31;34727;-73
2023/09/12 07:46:29;;;;;;;9.00;5.22;;;;;;;25.96;43.53;99437.75;4481514;31;33742;-73
2023/09/12 07:48:58;;;;;;;12.02;6.05;;;;;;;26.45;42.54;99440.72;4482547;31;34103;-71
2023/09/12 07:51:26;;;;;;;12.85;5.22;;;;;;;26.43;43.11;99442.88;4481832;31;33978;-72
2023/09/12 07:53:53;;;;;;;10.02;5.47;;;;;;;26.68;43.10;99434.66;4482857;31;33091;-73
2023/09/12 07:56:21;;;;;;;11.63;6.68;;;;;;;26.79;43.23;99436.63;4482079;31;34401;-73
2023/09/12 07:58:49;;;;;;;23.75;5.90;;;;;;;26.98;43.21;99439.38;4483807;31;34120;-73
2023/09/12 08:01:17;;;;;;;15.23;5.28;;;;;;;26.90;43.58;99437.75;4482138;31;33843;-73
2023/09/12 08:03:44;;;;;;;14.43;5.97;;;;;;;27.12;43.44;99436.22;4471200;32;33761;-72
2023/09/12 08:06:13;;;;;;;11.05;5.72;;;;;;;27.09;43.16;99442.19;4469858;32;33905;-74
2023/09/12 08:08:41;;;;;;;12.32;6.55;;;;;;;27.15;44.16;99430.31;4474210;32;34063;-72
2023/09/12 08:11:12;;;;;;;15.25;5.62;;;;;;;27.28;43.10;99428.47;4472464;32;34314;-71
2023/09/12 08:13:40;;;;;;;14.32;5.80;;;;;;;27.58;42.93;99429.34;4465224;32;33187;-72
2023/09/12 08:16:08;;;;;;;13.90;6.70;;;;;;;28.03;41.66;99434.41;4463568;32;33579;-71
2023/09/12 08:18:36;;;;;;;11.52;6.05;;;;;;;28.00;41.45;99434.88;4467590;32;33889;-71
2023/09/12 08:21:04;;;;;;;11.95;6.32;;;;;;;27.94;42.01;99433.06;4470713;32;33683;-71
2023/09/12 08:23:31;;;;;;;14.20;6.35;;;;;;;28.15;41.22;99434.41;4470215;32;33290;-71
2023/09/12 08:25:59;;;;;;;10.52;5.47;;;;;;;28.17;41.83;99428.69;4479374;32;34077;-71
2023/09/12 08:28:27;;;;;;;17.08;7.40;;;;;;;28.30;41.72;99439.47;4468182;32;35360;-71
2023/09/12 08:30:55;;;;;;;10.70;5.80;;;;;;;28.20;41.36;99437.28;4467394;32;33884;-72
2023/09/12 08:33:23;;;;;;;10.00;5.05;;;;;;;28.00;42.23;99440.38;4468604;32;32781;-74
2023/09/12 08:35:53;;;;;;;10.77;5.40;;;;;;;28.16;42.36;99443.53;4463631;32;33857;-70
2023/09/12 08:38:20;;;;;;;15.65;5.78;;;;;;;28.44;41.33;99435.41;4467165;32;34054;-71
2023/09/12 08:40:51;;;;;;;10.88;5.85;;;;;;;28.53;40.87;99441.41;4471539;32;33835;-71
2023/09/12 08:43:20;;;;;;;16.52;6.55;;;;;;;28.54;39.64;99437.59;4466299;32;33481;-71
2023/09/12 08:45:48;;;;;;;15.30;6.28;;;;;;;28.44;40.64;99435.41;4467158;32;33944;-72
2023/09/12 08:48:16;;;;;;;10.43;5.82;;;;;;;28.67;40.40;99429.09;4454385;32;34190;-73
2023/09/12 08:50:46;;;;;;;18.87;5.47;;;;;;;28.74;39.15;99431.72;4423385;32;32918;-71
2023/09/12 08:53:15;;;;;;;16.52;6.20;;;;;;;28.99;39.34;99429.53;4408798;32;33146;-71
2023/09/12 08:55:42;;;;;;;9.50;5.57;;;;;;;28.94;37.84;99437.66;4416877;32;33989;-71
2023/09/12 08:58:11;;;;;;;12.27;3.72;;;;;;;28.99;35.55;99435.03;4407350;32;34327;-70
2023/09/12 09:00:39;;;;;;;10.20;5.30;;;;;;;28.97;34.17;99439.94;4416610;32;33406;-70
2023/09/12 09:03:07;;;;;;;9.45;5.20;;;;;;;29.23;35.01;99435.00;4424119;32;32954;-71
2023/09/12 09:05:35;;;;;;;8.77;4.47;;;;;;;29.34;35.50;99430.53;4445622;32;33615;-70
2023/09/12 09:08:03;;;;;;;15.35;6.30;;;;;;;28.86;34.84;99435.31;4417999;32;34110;-71
2023/09/12 09:10:32;;;;;;;20.77;6.35;;;;;;;29.47;34.50;99441.25;4403240;32;33634;-74
2023/09/12 09:13:19;;;;;;;8.95;5.15;;;;;;;29.65;34.51;99441.09;4408867;32;34245;-73
2023/09/12 09:15:47;;;;;;;11.63;5.12;;;;;;;29.83;34.05;99431.78;4415958;32;34092;-73
2023/09/12 09:18:15;;;;;;;12.07;5.70;;;;;;;29.52;34.71;99427.59;4417165;32;33984;-74
2023/09/12 09:20:45;;;;;;;9.15;5.15;;;;;;;29.17;34.99;99427.72;4417645;32;34666;-74
2023/09/12 09:23:13;;;;;;;11.70;5.00;;;;;;;29.47;35.33;99421.97;4445080;32;33174;-71
2023/09/12 09:25:42;;;;;;;12.20;5.78;;;;;;;29.59;35.06;99431.03;4445821;32;34531;-74
2023/09/12 09:28:20;;;;;;;11.88;5.85;;;;;;;29.75;33.22;99421.16;4446262;32;35193;-73
2023/09/12 09:30:50;;;;;;;11.77;5.75;;;;;;;29.75;33.79;99434.09;4443572;32;34387;-74
2023/09/12 09:33:19;;;;;;;14.43;5.05;;;;;;;30.11;33.56;99427.28;4416448;32;31729;-71
2023/09/12 09:35:48;;;;;;;16.15;5.43;;;;;;;29.90;33.53;99426.94;4411962;32;33538;-75
2023/09/12 09:38:18;;;;;;;10.60;4.75;;;;;;;29.83;34.05;99425.44;4415732;32;34836;-74
2023/09/12 09:40:47;;;;;;;8.43;4.72;;;;;;;29.38;31.53;99438.09;4403548;32;33630;-74
2023/09/12 09:43:19;;;;;;;11.88;4.80;;;;;;;29.54;31.34;99435.63;4406021;32;33072;-74
2023/09/12 09:45:47;;;;;;;8.52;4.40;;;;;;;29.84;32.90;99435.38;4402208;32;33633;-74
2023/09/12 09:48:28;;;;;;;9.95;5.32;;;;;;;29.86;31.19;99436.00;4401342;32;34663;-74
2023/09/12 09:51:00;;;;;;;8.60;4.78;;;;;;;29.89;31.44;99428.03;4402934;32;34634;-73
2023/09/12 09:53:32;;;;;;;8.55;5.20;;;;;;;29.71;31.41;99429.09;4404924;32;34143;-74
2023/09/12 09:56:11;;;;;;;7.00;4.37;;;;;;;30.10;31.36;99420.09;4433378;32;34362;-74
2023/09/12 09:58:49;;;;;;;10.55;6.15;;;;;;;30.29;30.94;99426.25;4433987;32;35777;-73
2023/09/12 10:01:21;;;;;;;8.63;4.87;;;;;;;30.08;30.91;99420.38;4419237;32;34107;-74
2023/09/12 10:03:50;;;;;;;15.13;5.68;;;;;;;30.18;30.11;99423.28;4454851;32;33071;-74
2023/09/12 10:06:19;;;;;;;11.68;5.72;;;;;;;30.53;30.15;99419.47;4482913;32;33902;-74
2023/09/12 10:08:52;;;;;;;7.30;4.62;;;;;;;30.62;30.60;99420.69;4480045;31;34107;-74
2023/09/12 10:11:24;;;;;;;14.45;5.93;;;;;;;30.21;31.69;99422.00;4477840;31;33636;-74
2023/09/12 10:13:55;;;;;;;9.80;5.32;;;;;;;30.46;31.49;99415.19;4470156;32;33199;-74
2023/09/12 10:16:51;;;;;;;10.05;4.82;;;;;;;30.32;31.96;99412.78;4473654;31;34967;-73
2023/09/12 10:19:25;;;;;;;15.90;5.82;;;;;;;30.59;31.93;99417.59;4414355;32;33220;-72
2023/09/12 10:22:06;;;;;;;20.45;5.80;;;;;;;30.98;31.07;99410.19;4402447;32;32883;-73
2023/09/12 10:24:34;;;;;;;11.02;5.60;;;;;;;31.03;31.31;99406.63;4371305;32;33240;-73
2023/09/12 10:27:03;;;;;;;15.32;5.82;;;;;;;30.98;31.84;99412.06;4371817;32;33607;-72
2023/09/12 10:29:31;;;;;;;16.60;5.62;;;;;;;31.10;31.14;99416.38;4360283;32;34443;-73
2023/09/12 10:31:59;;;;;;;13.95;5.80;;;;;;;31.29;30.46;99408.59;4379039;32;35081;-73
2023/09/12 10:34:30;;;;;;;13.15;5.15;;;;;;;31.67;30.50;99397.72;4376421;32;34133;-72
2023/09/12 10:36:59;;;;;;;12.73;5.18;;;;;;;31.67;29.97;99392.19;4372685;32;34396;-72
2023/09/12 10:39:28;;;;;;;11.05;5.10;;;;;;;31.82;29.48;99397.03;4367110;32;33977;-74
2023/09/12 10:41:58;;;;;;;17.40;5.50;;;;;;;31.77;30.59;99395.03;4360872;32;33906;-73
2023/09/12 10:44:26;;;;;;;9.23;5.00;;;;;;;32.06;30.23;99389.22;4377543;32;32880;-73
2023/09/12 10:46:54;;;;;;;12.32;4.78;;;;;;;32.28;29.57;99386.38;4368046;32;33674;-71
2023/09/12 10:49:22;;;;;;;9.68;5.05;;;;;;;31.53;28.30;99389.84;4369829;32;35008;-70
2023/09/12 10:51:51;;;;;;;11.07;5.78;;;;;;;31.88;27.70;99387.66;4373783;32;33801;-71
2023/09/12 10:54:37;;;;;;;13.93;5.10;;;;;;;32.32;27.97;99391.09;4372779;32;33237;-71
2023/09/12 10:57:16;;;;;;;10.02;5.40;;;;;;;32.24;27.08;99389.66;4470231;32;33815;-71
2023/09/12 11:00:08;;;;;;;9.85;4.35;;;;;;;31.69;27.93;99390.81;4473319;31;34744;-71
2023/09/12 11:02:40;;;;;;;8.65;5.12;;;;;;;31.83;28.30;99391.22;4418766;32;33894;-71
2023/09/12 11:05:31;;;;;;;10.50;5.12;;;;;;;32.15;26.20;99377.41;4420154;32;34446;-72
2023/09/12 11:07:59;;;;;;;7.70;4.62;;;;;;;32.39;26.59;99374.25;4423046;32;33561;-72
2023/09/12 11:10:31;;;;;;;9.73;4.95;;;;;;;32.08;27.76;99375.97;4417494;32;35301;-72
2023/09/12 11:12:59;;;;;;;10.27;5.18;;;;;;;32.04;28.38;99372.91;4418514;32;33570;-73
2023/09/12 11:15:28;;;;;;;11.12;4.30;;;;;;;32.38;27.32;99376.19;4408299;32;33191;-71
2023/09/12 11:18:05;;;;;;;7.82;4.30;;;;;;;32.21;27.23;99370.81;4419690;32;34658;-71
2023/09/12 11:20:52;;;;;;;12.90;4.62;;;;;;;32.35;25.70;99375.87;4410900;32;34908;-70
2023/09/12 11:23:21;;;;;;;7.70;4.75;;;;;;;32.29;26.12;99371.41;4432613;32;33527;-71
2023/09/12 11:25:49;;;;;;;10.75;4.53;;;;;;;31.49;27.71;99368.47;4424251;32;33253;-71
2023/09/12 11:28:18;;;;;;;12.05;5.20;;;;;;;31.72;26.45;99367.34;4429842;32;33795;-72
2023/09/12 11:30:59;;;;;;;9.25;4.35;;;;;;;31.99;26.46;99361.78;4420399;32;33661;-72
2023/09/12 11:33:27;;;;;;;10.43;4.30;;;;;;;32.39;26.79;99361.25;4417110;32;33672;-71
2023/09/12 11:35:57;;;;;;;10.13;4.68;;;;;;;32.53;26.93;99360.81;4410836;32;32390;-72
2023/09/12 11:38:28;;;;;;;13.55;4.53;;;;;;;32.32;25.73;99354.25;4421069;32;33654;-71